Carolina, PR (00979)

5:29 PM AST on August 18, 2017 (GMT -0400)
Ocean Park | | Change Station
Active Advisory: Coastal Hazard Statement Active Notice: Coastal Hazard Statement

Elev 15 ft 18.45 °N, 66.05 °W | Updated 11 minutes ago

Scattered Clouds
Scattered Clouds
84.5 °F
Feels Like 95 °F
N
14.0
Wind Variable Wind from ENE
Gusts 20.0 mph

Today
High -- | Low -- °F
--% Chance of Precip.
Yesterday
High -- | Low -- °F
Precip. -- in
Pressure 29.91 in
Visibility 10.0 miles
Clouds Scattered Clouds 2800 ft
Heat Index 95 °F
Dew Point 78 °F
Humidity 80%
Rainfall 0.07 in
Snow Depth Not available.
6:06 AM 6:48 PM
Waning Crescent, 11% visible
METAR TJSJ 182056Z 08014G20KT 10SM SCT028 30/24 A2991 RMK AO2 SLP128 T03000239 53002
Pressure 29.91 in
Visibility 10.0 miles
Clouds Scattered Clouds 2800 ft
Heat Index 95 °F
Dew Point 78 °F
Humidity 80%
Rainfall 0.07 in
Snow Depth Not available.
6:06 AM 6:48 PM
Waning Crescent, 11% visible
METAR TJSJ 182056Z 08014G20KT 10SM SCT028 30/24 A2991 RMK AO2 SLP128 T03000239 53002

Get Your Daily Forecast Email!

Thanks for signing up!

Be on the lookout for a verification email in your inbox.

You'll start receiving severe weather alerts in your inbox..

×

10-Day Weather Forecast

Almanac

Astronomy

Aug. 18, 2017 Rise Set
Actual Time
Civil Twilight
Nautical Twilight
Astronomical Twilight
Moon
Length of Visible Light
Length of Day
Tomorrow will be .
, % of the Moon is Illuminated

Today's Extremes

State Highs State Lows

Community

WunderPhotos

Category 6

Welcome to Category 6. This is the collective home for Weather Underground's featured writeups by Dr. Jeff Masters (right), Bob Henson (left), Chris Burt, and other regular contributors.

Nearby

Air Quality

  Air Quality AQ Index Pollutant
Not available.

Snow Depth

Station Depth Elevation

Earthquake Activity

City Distance Mag. Time & Date
Minimum magnitude displayed is 2.5.

Coastal Water Temperatures

Place Temperature

Stations

Nearby Weather Stations

Station Location Temp. Windchill Dew Point Humidity Wind Precip. Elev Updated Type
                   

Watches & Warnings

Coastal Hazard Statement
Issued: 3:36 PM AST Aug. 18, 2017 – National Weather Service

... High rip current risk in effect through late tonight...

The National Weather Service in San Juan has issued a high rip
current risk, which is in effect through late tonight.

* Location... northwest to northeast facing beaches.

* Timing... through tonight.

* Impacts... strong currents that can carry away even the best
swimmers.

Precautionary/preparedness actions...

There is a high risk of rip currents.

Swim near a lifeguard. If caught in a rip current, relax and
float. Don't swim against the current. If able, swim in a
direction following the shoreline. If unable to escape, face the
shore and call or wave for help.